createdAt,value
2019-02-05T00:00:28.169Z,22.40
2019-02-05T00:02:56.899Z,22.40
2019-02-05T00:05:25.425Z,22.67
2019-02-05T00:07:53.874Z,22.10
2019-02-05T00:10:22.354Z,23.03
2019-02-05T00:12:50.800Z,22.50
2019-02-05T00:15:19.344Z,21.63
2019-02-05T00:17:48.262Z,22.47
2019-02-05T00:20:16.723Z,21.20
2019-02-05T00:22:45.246Z,22.60
2019-02-05T00:25:13.806Z,21.60
2019-02-05T00:27:42.226Z,22.70
2019-02-05T00:30:15.435Z,22.17
2019-02-05T00:32:44.307Z,22.73
2019-02-05T00:35:12.945Z,21.90
2019-02-05T00:37:41.498Z,21.07
2019-02-05T00:40:12.811Z,22.70
2019-02-05T00:42:41.349Z,21.70
2019-02-05T00:45:12.610Z,22.17
2019-02-05T00:47:41.362Z,23.50
2019-02-05T00:50:12.070Z,22.53
2019-02-05T00:52:40.627Z,22.53
2019-02-05T00:55:14.354Z,21.87
2019-02-05T00:57:42.915Z,23.10
2019-02-05T01:00:14.491Z,23.70
2019-02-05T01:02:42.964Z,22.30
2019-02-05T01:05:11.474Z,23.60
2019-02-05T01:07:39.927Z,23.23
2019-02-05T01:10:09.790Z,23.03
2019-02-05T01:12:38.332Z,24.00
2019-02-05T01:15:15.829Z,24.23
2019-02-05T01:17:44.314Z,22.50
2019-02-05T01:20:16.146Z,25.43
2019-02-05T01:22:44.695Z,24.97
2019-02-05T01:25:13.390Z,23.37
2019-02-05T01:27:41.871Z,21.57
2019-02-05T01:30:25.036Z,22.97
2019-02-05T01:32:53.578Z,22.23
2019-02-05T01:35:22.281Z,24.03
2019-02-05T01:37:50.827Z,23.40
2019-02-05T01:40:21.802Z,24.33
2019-02-05T01:42:50.341Z,22.93
2019-02-05T01:45:20.247Z,22.17
2019-02-05T01:47:48.706Z,21.27
2019-02-05T01:50:19.624Z,21.23
2019-02-05T01:52:48.090Z,21.97
2019-02-05T01:55:16.609Z,21.40
2019-02-05T01:57:45.452Z,20.17
2019-02-05T02:00:22.756Z,20.30
2019-02-05T02:02:51.312Z,20.27
2019-02-05T02:05:19.847Z,20.93
2019-02-05T02:07:48.489Z,20.43
2019-02-05T02:10:28.712Z,19.17
2019-02-05T02:12:57.278Z,20.37
2019-02-05T02:15:25.770Z,19.57
2019-02-05T02:17:54.387Z,19.93
2019-02-05T02:20:23.228Z,19.47
2019-02-05T02:22:51.720Z,18.93
2019-02-05T02:25:20.250Z,20.30
2019-02-05T02:27:49.509Z,19.13
2019-02-05T02:30:26.697Z,22.33
2019-02-05T02:32:55.239Z,21.17
2019-02-05T02:35:23.787Z,28.07
2019-02-05T02:37:52.818Z,20.67
2019-02-05T02:40:21.304Z,20.13
2019-02-05T02:42:49.742Z,19.67
2019-02-05T02:45:18.298Z,17.63
2019-02-05T02:47:46.808Z,19.13
2019-02-05T02:50:22.717Z,18.80
2019-02-05T02:52:51.389Z,19.20
2019-02-05T02:55:20.141Z,19.50
2019-02-05T02:57:48.681Z,20.33
2019-02-05T03:00:21.773Z,21.00
2019-02-05T03:02:51.381Z,19.80
2019-02-05T03:05:22.206Z,19.80
2019-02-05T03:07:50.739Z,17.87
2019-02-05T03:10:24.494Z,20.30
2019-02-05T03:12:53.393Z,19.90
2019-02-05T03:15:21.938Z,18.53
2019-02-05T03:17:50.499Z,18.10
2019-02-05T03:20:19.199Z,20.30
2019-02-05T03:22:47.630Z,20.57
2019-02-05T03:25:21.969Z,19.73
2019-02-05T03:27:53.515Z,19.80
2019-02-05T03:30:22.772Z,20.10
2019-02-05T03:32:52.059Z,21.10
2019-02-05T03:35:20.891Z,19.07
2019-02-05T03:37:49.522Z,20.17
2019-02-05T03:40:27.040Z,20.27
2019-02-05T03:42:55.562Z,19.83
2019-02-05T03:45:25.015Z,19.67
2019-02-05T03:47:56.577Z,18.13
2019-02-05T03:50:25.748Z,20.57
2019-02-05T03:52:57.288Z,20.10
2019-02-05T03:55:43.771Z,19.50
2019-02-05T03:58:18.019Z,18.47
2019-02-05T04:00:49.601Z,18.73
2019-02-05T04:03:26.852Z,21.27
2019-02-05T04:06:04.104Z,19.87
2019-02-05T04:08:41.596Z,19.67
2019-02-05T04:11:34.436Z,18.60
2019-02-05T04:14:33.078Z,20.50
2019-02-05T04:17:30.311Z,19.70
2019-02-05T04:20:27.872Z,19.60
2019-02-05T04:22:59.830Z,18.00
2019-02-05T04:25:46.399Z,19.80
2019-02-05T04:28:20.593Z,18.53
2019-02-05T04:31:00.994Z,18.27
2019-02-05T04:33:35.040Z,17.93
2019-02-05T04:36:09.293Z,17.50
2019-02-05T04:38:40.850Z,18.60
2019-02-05T04:41:15.446Z,16.77
2019-02-05T04:43:49.693Z,18.90
2019-02-05T04:46:42.657Z,19.30
2019-02-05T04:49:19.999Z,18.03
2019-02-05T04:52:12.568Z,20.03
2019-02-05T04:55:05.376Z,18.53
2019-02-05T04:58:01.732Z,19.40
2019-02-05T05:00:39.171Z,17.47
2019-02-05T05:03:10.752Z,18.37
2019-02-05T05:06:07.880Z,17.50
2019-02-05T05:08:54.792Z,17.83
2019-02-05T05:11:23.237Z,18.27
2019-02-05T05:13:51.716Z,17.83
2019-02-05T05:16:20.160Z,18.80
2019-02-05T05:18:48.803Z,19.70
2019-02-05T05:21:18.228Z,19.77
2019-02-05T05:23:47.653Z,20.30
2019-02-05T05:26:16.684Z,22.37
2019-02-05T05:28:56.742Z,22.27
2019-02-05T05:31:25.560Z,21.07
2019-02-05T05:33:53.934Z,22.43
2019-02-05T05:36:22.453Z,20.43
2019-02-05T05:38:50.964Z,18.67
2019-02-05T05:41:19.778Z,20.80
2019-02-05T05:43:48.179Z,21.23
2019-02-05T05:46:16.626Z,21.53
2019-02-05T05:48:45.020Z,20.27
2019-02-05T05:51:13.467Z,19.60
2019-02-05T05:53:41.865Z,21.20
2019-02-05T05:56:10.313Z,20.40
2019-02-05T05:58:39.071Z,20.47
2019-02-05T06:01:07.510Z,20.00
2019-02-05T06:03:36.005Z,19.10
2019-02-05T06:06:04.509Z,18.60
2019-02-05T06:08:33.070Z,22.40
2019-02-05T06:11:01.431Z,22.87
2019-02-05T06:13:29.968Z,21.13
2019-02-05T06:15:58.961Z,20.57
2019-02-05T06:18:27.422Z,21.27
2019-02-05T06:20:55.870Z,22.27
2019-02-05T06:23:24.346Z,24.90
2019-02-05T06:25:52.904Z,22.03
2019-02-05T06:28:21.406Z,23.60
2019-02-05T06:30:49.953Z,22.87
2019-02-05T06:33:18.574Z,25.70
2019-02-05T06:35:47.047Z,28.03
2019-02-05T06:38:15.564Z,27.13
2019-02-05T06:40:44.074Z,27.07
2019-02-05T06:43:12.621Z,25.30
2019-02-05T06:45:41.611Z,27.87
2019-02-05T06:48:10.250Z,25.80
2019-02-05T06:50:38.722Z,25.43
2019-02-05T06:53:07.086Z,24.93
2019-02-05T06:55:35.577Z,26.57
2019-02-05T06:58:04.395Z,24.90
2019-02-05T07:00:34.731Z,24.20
2019-02-05T07:03:03.179Z,25.03
2019-02-05T07:05:33.011Z,23.97
2019-02-05T07:08:01.596Z,29.23
2019-02-05T07:10:30.523Z,34.47
2019-02-05T07:12:59.075Z,38.77
2019-02-05T07:15:30.057Z,40.80
2019-02-05T07:17:58.727Z,42.77
2019-02-05T07:20:27.323Z,47.87
2019-02-05T07:22:56.106Z,43.73
2019-02-05T07:25:24.576Z,39.23
2019-02-05T07:28:01.179Z,39.40
2019-02-05T07:30:29.796Z,36.73
2019-02-05T07:32:58.419Z,29.93
2019-02-05T07:35:26.948Z,32.30
2019-02-05T07:37:59.098Z,30.97
2019-02-05T07:40:27.633Z,33.63
2019-02-05T07:42:58.253Z,34.40
2019-02-05T07:45:26.838Z,33.33
2019-02-05T07:47:55.323Z,35.37
2019-02-05T07:50:26.294Z,31.03
2019-02-05T07:52:55.131Z,29.27
2019-02-05T07:55:24.125Z,29.70
2019-02-05T07:57:52.682Z,29.83
2019-02-05T08:00:27.224Z,30.77
2019-02-05T08:02:55.963Z,33.10
2019-02-05T08:05:28.825Z,32.60
2019-02-05T08:07:57.566Z,32.13
2019-02-05T08:10:26.425Z,27.70
2019-02-05T08:12:54.903Z,29.27
2019-02-05T08:15:26.274Z,27.13
2019-02-05T08:17:54.810Z,28.07
2019-02-05T08:20:23.326Z,27.50
2019-02-05T08:22:51.941Z,28.57
2019-02-05T08:25:20.692Z,26.70
2019-02-05T08:27:49.254Z,26.87
2019-02-05T08:30:20.442Z,25.07
2019-02-05T08:32:48.936Z,28.00
2019-02-05T08:35:18.354Z,24.97
2019-02-05T08:37:46.822Z,25.47
2019-02-05T08:40:20.511Z,25.30
2019-02-05T08:42:48.987Z,26.30
2019-02-05T08:45:20.098Z,25.83
2019-02-05T08:47:48.499Z,26.53
2019-02-05T08:50:19.584Z,27.27
2019-02-05T08:52:48.038Z,28.07
2019-02-05T08:55:18.555Z,29.23
2019-02-05T08:57:47.621Z,27.17
2019-02-05T09:00:24.335Z,27.23
2019-02-05T09:02:53.179Z,26.93
2019-02-05T09:05:23.251Z,26.57
2019-02-05T09:07:53.035Z,26.97
2019-02-05T09:10:33.499Z,26.07
2019-02-05T09:13:02.078Z,24.20
2019-02-05T09:15:31.668Z,25.37
2019-02-05T09:18:00.491Z,25.93
2019-02-05T09:20:28.962Z,25.60
2019-02-05T09:22:57.874Z,26.03
2019-02-05T09:25:26.464Z,25.63
2019-02-05T09:28:00.582Z,25.13
2019-02-05T09:30:35.528Z,24.70
2019-02-05T09:33:10.013Z,25.57
2019-02-05T09:35:44.121Z,26.53
2019-02-05T09:38:14.278Z,24.60
2019-02-05T09:40:44.131Z,25.17
2019-02-05T09:43:13.115Z,25.27
2019-02-05T09:45:45.289Z,26.47
2019-02-05T09:48:18.408Z,27.13
2019-02-05T09:50:48.806Z,26.40
2019-02-05T09:53:20.195Z,25.97
2019-02-05T09:55:48.720Z,28.20
2019-02-05T09:58:19.089Z,27.37
2019-02-05T10:00:47.552Z,27.67
2019-02-05T10:03:15.910Z,29.20
2019-02-05T10:05:44.450Z,30.43
2019-02-05T10:08:13.183Z,31.60
2019-02-05T10:10:41.575Z,29.23
2019-02-05T10:13:10.011Z,29.17
2019-02-05T10:15:41.489Z,29.37
2019-02-05T10:18:12.232Z,30.63
2019-02-05T10:20:40.775Z,30.83
2019-02-05T10:23:09.798Z,37.70
2019-02-05T10:25:38.837Z,45.87
2019-02-05T10:28:08.054Z,48.57
2019-02-05T10:30:44.008Z,42.00
2019-02-05T10:33:12.520Z,35.27
2019-02-05T10:35:41.153Z,36.00
2019-02-05T10:38:14.095Z,33.30
2019-02-05T10:40:47.739Z,31.80
2019-02-05T10:43:21.033Z,32.57
2019-02-05T10:45:49.907Z,31.57
2019-02-05T10:48:19.948Z,31.27
2019-02-05T10:50:53.120Z,31.00
2019-02-05T10:53:27.335Z,28.63
2019-02-05T10:55:56.277Z,28.93
2019-02-05T10:58:29.412Z,28.13
2019-02-05T11:00:59.448Z,27.70
2019-02-05T11:06:24.785Z,28.93
2019-02-05T11:08:53.505Z,27.57
2019-02-05T11:11:22.037Z,28.50
2019-02-05T11:13:50.592Z,26.27
2019-02-05T11:16:20.590Z,27.10
2019-02-05T11:18:49.181Z,26.13
2019-02-05T11:21:18.085Z,26.67
2019-02-05T11:23:46.580Z,26.80
2019-02-05T11:26:18.272Z,26.60
2019-02-05T11:28:46.881Z,28.60
2019-02-05T11:31:15.658Z,26.90
2019-02-05T11:33:44.184Z,26.03
2019-02-05T11:36:16.192Z,27.20
2019-02-05T11:38:44.758Z,25.13
2019-02-05T11:41:13.842Z,26.80
2019-02-05T11:43:42.462Z,25.97
2019-02-05T11:46:10.902Z,27.13
2019-02-05T11:48:39.536Z,28.47
2019-02-05T11:51:08.081Z,28.73
2019-02-05T11:53:36.614Z,29.27
2019-02-05T11:56:05.050Z,27.30
2019-02-05T11:58:33.630Z,26.90
2019-02-05T12:01:04.024Z,24.63
2019-02-05T12:03:32.527Z,24.97
2019-02-05T12:06:01.043Z,23.07
2019-02-05T12:08:29.684Z,22.70
2019-02-05T12:10:58.188Z,22.73
2019-02-05T12:13:26.585Z,23.80
2019-02-05T12:15:55.087Z,22.43
2019-02-05T12:18:23.924Z,22.33
2019-02-05T12:20:52.465Z,21.17
2019-02-05T12:23:20.933Z,20.97
2019-02-05T12:25:49.882Z,20.97
2019-02-05T12:28:18.451Z,21.30
2019-02-05T12:30:47.234Z,21.27
2019-02-05T12:33:15.780Z,21.23
2019-02-05T12:35:44.975Z,20.50
2019-02-05T12:38:13.541Z,20.83
2019-02-05T12:40:41.974Z,21.47
2019-02-05T12:43:10.432Z,20.63
2019-02-05T12:45:39.366Z,19.47
2019-02-05T12:48:08.109Z,21.93
2019-02-05T12:50:38.808Z,19.80
2019-02-05T12:53:07.932Z,20.70
2019-02-05T12:55:37.642Z,20.57
2019-02-05T12:58:06.760Z,20.47
2019-02-05T13:00:56.469Z,19.53
2019-02-05T13:03:17.485Z,20.73
2019-02-05T13:05:47.596Z,20.13
2019-02-05T13:08:16.135Z,19.87
2019-02-05T13:10:49.626Z,17.90
2019-02-05T13:13:18.536Z,18.77
2019-02-05T13:15:47.158Z,18.30
2019-02-05T13:18:15.728Z,18.80
2019-02-05T13:20:47.095Z,19.40
2019-02-05T13:23:16.094Z,18.83
2019-02-05T13:25:53.730Z,18.63
2019-02-05T13:28:22.888Z,18.23
2019-02-05T13:30:54.898Z,17.70
2019-02-05T13:33:26.412Z,16.90
2019-02-05T13:35:55.281Z,17.50
2019-02-05T13:38:24.039Z,16.23
2019-02-05T13:40:52.535Z,15.77
2019-02-05T13:43:21.070Z,16.53
2019-02-05T13:45:52.220Z,16.67
2019-02-05T13:48:21.484Z,17.80
2019-02-05T13:50:50.588Z,16.53
2019-02-05T13:53:20.551Z,16.40
2019-02-05T13:55:51.941Z,16.77
2019-02-05T13:58:20.982Z,15.43
2019-02-05T14:00:52.293Z,16.73
2019-02-05T14:03:22.795Z,17.03
2019-02-05T14:05:51.662Z,15.73
2019-02-05T14:08:21.960Z,17.27
2019-02-05T14:10:50.851Z,17.00
2019-02-05T14:13:19.357Z,15.50
2019-02-05T14:15:51.183Z,15.67
2019-02-05T14:18:23.077Z,16.70
2019-02-05T14:20:56.290Z,16.20
2019-02-05T14:23:24.811Z,15.47
2019-02-05T14:25:54.254Z,15.53
2019-02-05T14:28:26.314Z,16.07
2019-02-05T14:30:59.439Z,17.07
2019-02-05T14:33:29.207Z,14.93
2019-02-05T14:35:57.750Z,15.40
2019-02-05T14:38:37.035Z,16.63
2019-02-05T14:41:08.343Z,15.17
2019-02-05T14:43:40.120Z,15.40
2019-02-05T14:46:08.645Z,16.13
2019-02-05T14:48:44.562Z,15.40
2019-02-05T14:51:13.127Z,15.63
2019-02-05T14:53:45.726Z,14.23
2019-02-05T14:56:19.329Z,15.33
2019-02-05T14:58:49.755Z,15.87
2019-02-05T15:01:18.771Z,15.77
2019-02-05T15:03:48.611Z,14.33
2019-02-05T15:06:17.414Z,14.17
2019-02-05T15:08:45.840Z,14.83
2019-02-05T15:11:16.496Z,15.30
2019-02-05T15:13:45.605Z,14.33
2019-02-05T15:16:15.244Z,14.20
2019-02-05T15:18:45.098Z,14.57
2019-02-05T15:21:13.907Z,14.50
2019-02-05T15:23:45.406Z,13.77
2019-02-05T15:26:14.555Z,13.43
2019-02-05T15:28:43.801Z,13.40
2019-02-05T15:31:12.619Z,12.97
2019-02-05T15:33:45.066Z,13.80
2019-02-05T15:36:18.503Z,13.57
2019-02-05T15:38:50.917Z,13.23
2019-02-05T15:41:19.558Z,13.70
2019-02-05T15:43:48.056Z,13.20
2019-02-05T15:46:29.599Z,13.47
2019-02-05T15:49:01.381Z,13.17
2019-02-05T15:51:31.760Z,12.57
2019-02-05T15:54:03.336Z,12.77
2019-02-05T15:56:38.047Z,13.37
2019-02-05T16:02:05.933Z,12.90
2019-02-05T16:04:30.486Z,12.93
2019-02-05T16:06:58.940Z,12.90
2019-02-05T16:09:30.594Z,12.90
2019-02-05T16:12:00.044Z,11.17
2019-02-05T16:14:29.423Z,12.30
2019-02-05T16:16:59.384Z,12.53
2019-02-05T16:19:28.582Z,16.03
2019-02-05T16:21:58.579Z,18.00
2019-02-05T16:24:27.510Z,18.23
2019-02-05T16:26:57.655Z,14.97
2019-02-05T16:29:26.386Z,16.30
2019-02-05T16:31:55.259Z,13.13
2019-02-05T16:34:24.136Z,20.47
2019-02-05T16:36:54.553Z,14.40
2019-02-05T16:39:23.848Z,14.43
2019-02-05T16:41:52.939Z,14.73
2019-02-05T16:44:21.981Z,17.13
2019-02-05T16:46:50.892Z,18.30
2019-02-05T16:49:22.293Z,18.23
2019-02-05T16:51:51.763Z,19.00
2019-02-05T16:54:20.953Z,19.67
2019-02-05T16:56:49.920Z,20.00
2019-02-05T16:59:19.386Z,19.53
2019-02-05T17:01:47.890Z,20.43
2019-02-05T17:04:18.743Z,20.63
2019-02-05T17:06:49.261Z,22.80
2019-02-05T17:09:18.747Z,20.87
2019-02-05T17:11:49.376Z,21.03
2019-02-05T17:14:18.879Z,24.03
2019-02-05T17:16:47.561Z,32.20
2019-02-05T17:19:16.509Z,28.10
2019-02-05T17:21:44.950Z,24.03
2019-02-05T17:24:13.789Z,21.57
2019-02-05T17:26:42.291Z,23.63
2019-02-05T17:29:10.757Z,20.57
2019-02-05T17:31:39.189Z,22.43
2019-02-05T17:34:07.652Z,21.70
2019-02-05T17:36:38.598Z,21.37
2019-02-05T17:39:10.849Z,20.80
2019-02-05T17:41:39.849Z,21.37
2019-02-05T17:44:13.273Z,18.43
2019-02-05T17:46:41.998Z,20.33
2019-02-05T17:49:13.705Z,18.87
2019-02-05T17:51:45.529Z,18.40
2019-02-05T17:54:17.386Z,19.03
2019-02-05T17:56:46.102Z,19.47
2019-02-05T17:59:15.118Z,19.07
2019-02-05T18:01:43.998Z,18.87
2019-02-05T18:04:19.084Z,19.70
2019-02-05T18:06:48.409Z,17.70
2019-02-05T18:09:18.421Z,18.40
2019-02-05T18:11:49.773Z,18.33
2019-02-05T18:14:21.636Z,17.53
2019-02-05T18:16:51.871Z,18.87
2019-02-05T18:19:20.330Z,20.93
2019-02-05T18:21:50.070Z,20.50
2019-02-05T18:24:20.503Z,20.90
2019-02-05T18:26:49.382Z,23.00
2019-02-05T18:29:17.921Z,20.13
2019-02-05T18:31:46.658Z,19.93
2019-02-05T18:34:15.468Z,20.03
2019-02-05T18:36:49.591Z,19.83
2019-02-05T18:39:20.345Z,19.83
2019-02-05T18:41:48.888Z,20.47
2019-02-05T18:44:17.321Z,18.53
2019-02-05T18:46:49.184Z,21.30
2019-02-05T18:49:18.304Z,21.67
2019-02-05T18:51:46.796Z,22.20
2019-02-05T18:54:15.210Z,20.77
2019-02-05T18:56:43.795Z,19.97
2019-02-05T18:59:12.472Z,27.43
2019-02-05T19:01:44.435Z,28.87
2019-02-05T19:04:16.085Z,27.90
2019-02-05T19:06:48.807Z,27.50
2019-02-05T19:09:17.729Z,25.80
2019-02-05T19:11:47.878Z,22.80
2019-02-05T19:14:16.318Z,23.13
2019-02-05T19:16:46.658Z,21.60
2019-02-05T19:19:15.512Z,22.63
2019-02-05T19:21:45.514Z,21.70
2019-02-05T19:24:15.802Z,20.57
2019-02-05T19:26:46.787Z,20.37
2019-02-05T19:29:18.933Z,20.80
2019-02-05T19:31:45.483Z,21.70
2019-02-05T19:34:13.853Z,21.37
2019-02-05T19:36:42.323Z,21.13
2019-02-05T19:39:11.544Z,23.00
2019-02-05T19:41:40.089Z,22.70
2019-02-05T19:44:08.510Z,22.53
2019-02-05T19:46:54.162Z,22.67
2019-02-05T19:49:24.569Z,22.77
2019-02-05T19:51:53.294Z,23.63
2019-02-05T19:54:22.131Z,23.93
2019-02-05T19:56:50.615Z,23.57
2019-02-05T19:59:19.537Z,21.93
2019-02-05T20:01:48.121Z,25.93
2019-02-05T20:04:16.603Z,27.50
2019-02-05T20:06:45.171Z,24.33
2019-02-05T20:09:14.533Z,24.60
2019-02-05T20:11:43.094Z,26.00
2019-02-05T20:14:11.846Z,25.20
2019-02-05T20:16:40.301Z,26.43
2019-02-05T20:19:08.911Z,26.40
2019-02-05T20:21:37.694Z,26.57
2019-02-05T20:24:06.220Z,27.33
2019-02-05T20:26:35.407Z,26.33
2019-02-05T20:29:03.851Z,26.37
2019-02-05T20:31:32.315Z,27.47
2019-02-05T20:34:00.694Z,26.70
2019-02-05T20:36:29.156Z,27.57
2019-02-05T20:38:58.042Z,26.90
2019-02-05T20:41:26.574Z,25.33
2019-02-05T20:43:56.129Z,26.57
2019-02-05T20:46:24.568Z,25.40
2019-02-05T20:48:53.101Z,27.17
2019-02-05T20:51:21.556Z,27.57
2019-02-05T20:53:49.969Z,26.57
2019-02-05T20:56:18.474Z,26.37
2019-02-05T20:58:47.123Z,26.57
2019-02-05T21:01:15.594Z,25.77
2019-02-05T21:03:44.130Z,26.63
2019-02-05T21:06:12.574Z,24.13
2019-02-05T21:08:41.115Z,25.90
2019-02-05T21:11:09.716Z,25.73
2019-02-05T21:13:38.291Z,23.63
2019-02-05T21:16:06.965Z,24.47
2019-02-05T21:18:35.559Z,24.10
2019-02-05T21:21:04.074Z,24.50
2019-02-05T21:23:32.470Z,24.40
2019-02-05T21:26:00.979Z,23.67
2019-02-05T21:28:31.360Z,26.13
2019-02-05T21:31:00.215Z,27.47
2019-02-05T21:33:31.480Z,28.30
2019-02-05T21:36:00.257Z,28.30
2019-02-05T21:38:29.494Z,29.07
2019-02-05T21:40:59.858Z,27.93
2019-02-05T21:43:28.545Z,28.00
2019-02-05T21:45:57.105Z,32.17
2019-02-05T21:48:25.582Z,29.97
2019-02-05T21:50:53.946Z,28.93
2019-02-05T21:53:22.355Z,29.63
2019-02-05T21:55:50.722Z,26.93
2019-02-05T21:58:19.169Z,26.20
2019-02-05T22:00:47.644Z,26.70
2019-02-05T22:03:16.721Z,28.33
2019-02-05T22:05:46.220Z,28.50
2019-02-05T22:08:14.881Z,31.13
2019-02-05T22:10:43.787Z,30.90
2019-02-05T22:13:12.870Z,28.57
2019-02-05T22:15:42.115Z,30.27
2019-02-05T22:18:11.011Z,29.30
2019-02-05T22:20:40.450Z,29.73
2019-02-05T22:23:09.815Z,31.33
2019-02-05T22:25:38.612Z,31.43
2019-02-05T22:28:07.604Z,30.90
2019-02-05T22:30:40.420Z,30.30
2019-02-05T22:33:09.418Z,28.93
2019-02-05T22:35:39.154Z,30.33
2019-02-05T22:38:09.801Z,30.17
2019-02-05T22:40:38.493Z,27.17
2019-02-05T22:43:08.000Z,26.63
2019-02-05T22:45:37.042Z,26.87
2019-02-05T22:48:06.544Z,28.00
2019-02-05T22:50:36.944Z,27.93
2019-02-05T22:53:08.859Z,26.93
2019-02-05T22:55:39.500Z,27.63
2019-02-05T22:58:09.132Z,27.93
2019-02-05T23:00:54.879Z,27.60
2019-02-05T23:03:26.762Z,26.80
2019-02-05T23:06:15.028Z,26.37
2019-02-05T23:08:43.818Z,25.37
2019-02-05T23:11:25.367Z,26.37
2019-02-05T23:13:54.694Z,27.20
2019-02-05T23:16:23.484Z,26.07
2019-02-05T23:18:52.132Z,27.20
2019-02-05T23:21:20.669Z,28.30
2019-02-05T23:23:49.110Z,27.77
2019-02-05T23:26:17.830Z,26.80
2019-02-05T23:28:46.316Z,28.90
2019-02-05T23:31:14.746Z,28.30
2019-02-05T23:33:44.656Z,29.73
2019-02-05T23:36:13.336Z,27.13
2019-02-05T23:38:42.406Z,29.50
2019-02-05T23:41:11.153Z,28.57
2019-02-05T23:43:39.635Z,29.77
2019-02-05T23:46:08.156Z,26.70
2019-02-05T23:48:36.617Z,28.17
2019-02-05T23:51:05.438Z,28.97
2019-02-05T23:53:35.514Z,29.57
2019-02-05T23:56:04.406Z,29.13
2019-02-05T23:58:32.819Z,27.27
